Bonus, Illinois
Current Conditions -  °F | °C
As of 11:54 AM on Thursday 23 Oct 2014 (Local Time) from KRFD Reporting Station
Overcast Overcast  
Wind Chill: 59°   Ceiling: 18000
Heat Index: 59°   Visibility: 10mi
Dew Point: 42°   Wind: 18mph
Humidity: 53%   Direction: 210°SSW
Pressure: 30.16"   Gusts: 23mph
Location:  42.267°N, 88.7326°W
Report Text: KRFD 231654Z 21016G20KT 10SM FEW100 BKN180 OVC250 15/06 A3016 RMK AO2 SLP217 T01500056
Loading
Personal Weather Stations






























Interactive Weather Map
Tropical Storm Tracking
New forecast layout! Learn more

10-Day Weather Forecast

Advertisements
Track Severe Weather on mobile